Time;durP1;ratioP1;P1;durP2;ratioP2;P2;SDS_P1;SDS_P2;PMS_P1;PMS_P2;Temp;Humidity;BMP_temperature;BMP_pressure;BME280_temperature;BME280_humidity;BME280_pressure;Samples;Min_cycle;Max_cycle;Signal;HPM_P1;HPM_P2
2021/03/17 00:00:31;;;;;;;2.83;2.63;;;3.10;91.80;;;;;;5047352;28;20199;-76
2021/03/17 00:02:57;;;;;;;3.63;3.33;;;3.10;91.80;;;;;;5062793;28;20211;-76
2021/03/17 00:05:34;;;;;;;2.63;2.50;;;3.10;91.60;;;;;;5056104;28;20699;-76
2021/03/17 00:08:00;;;;;;;5.13;3.67;;;3.10;91.60;;;;;;5061272;28;20186;-77
2021/03/17 00:10:28;;;;;;;3.83;3.53;;;3.10;91.80;;;;;;5058430;28;20186;-77
2021/03/17 00:12:58;;;;;;;3.13;2.73;;;3.10;91.90;;;;;;5053427;28;20194;-77
2021/03/17 00:15:26;;;;;;;4.10;3.73;;;3.10;91.90;;;;;;5058137;28;20949;-77
2021/03/17 00:17:52;;;;;;;4.10;3.47;;;3.00;92.00;;;;;;5057696;28;20242;-78
2021/03/17 00:20:18;;;;;;;2.77;2.63;;;3.00;92.10;;;;;;5040664;28;20788;-76
2021/03/17 00:22:45;;;;;;;6.33;3.20;;;3.00;92.10;;;;;;5066916;28;20206;-78
2021/03/17 00:25:11;;;;;;;3.23;3.03;;;3.00;92.30;;;;;;5059456;28;20187;-77
2021/03/17 00:27:37;;;;;;;3.07;2.87;;;3.00;92.30;;;;;;5043163;28;20187;-75
2021/03/17 00:30:08;;;;;;;4.30;3.17;;;3.00;92.50;;;;;;5058268;28;20190;-76
2021/03/17 00:32:34;;;;;;;3.80;3.60;;;3.00;92.70;;;;;;5059952;28;20248;-76
2021/03/17 00:35:00;;;;;;;3.70;3.40;;;3.00;93.00;;;;;;5061941;28;20187;-77
2021/03/17 00:37:26;;;;;;;3.20;2.90;;;3.00;93.00;;;;;;5073904;28;20260;-77
2021/03/17 00:39:52;;;;;;;2.27;2.17;;;3.00;93.00;;;;;;5062839;28;20217;-76
2021/03/17 00:42:17;;;;;;;3.97;3.17;;;3.00;93.00;;;;;;5047682;28;20639;-76
2021/03/17 00:44:43;;;;;;;3.27;2.47;;;2.90;93.20;;;;;;5045446;28;20982;-77
2021/03/17 00:47:09;;;;;;;2.83;2.63;;;2.90;93.30;;;;;;5069407;28;20193;-77
2021/03/17 00:49:34;;;;;;;3.27;2.97;;;2.90;93.10;;;;;;5046773;28;20660;-77
2021/03/17 00:52:00;;;;;;;2.03;1.93;;;2.90;93.10;;;;;;5077856;28;20193;-77
2021/03/17 00:54:26;;;;;;;3.37;3.17;;;2.90;92.80;;;;;;5060923;28;20252;-77
2021/03/17 00:56:51;;;;;;;3.23;2.37;;;2.90;93.00;;;;;;5039780;28;20240;-77
2021/03/17 00:59:17;;;;;;;3.17;2.87;;;2.90;92.90;;;;;;5063543;28;20762;-77
2021/03/17 01:01:43;;;;;;;2.67;2.50;;;2.90;92.80;;;;;;5071339;28;20190;-77
2021/03/17 01:04:09;;;;;;;3.03;2.87;;;2.90;92.70;;;;;;5041823;28;20218;-77
2021/03/17 01:06:35;;;;;;;2.50;2.40;;;2.90;92.50;;;;;;5058245;28;20187;-77
2021/03/17 01:09:02;;;;;;;2.60;2.50;;;2.80;92.50;;;;;;5059592;28;20188;-77
2021/03/17 01:11:28;;;;;;;2.53;2.33;;;2.80;92.50;;;;;;5069164;28;20189;-77
2021/03/17 01:13:54;;;;;;;2.53;2.37;;;2.80;92.30;;;;;;5056662;28;20567;-78
2021/03/17 01:16:20;;;;;;;1.63;1.53;;;2.80;92.40;;;;;;5065994;28;20183;-77
2021/03/17 01:18:46;;;;;;;2.07;1.97;;;2.80;92.30;;;;;;5080220;28;20286;-77
2021/03/17 01:21:11;;;;;;;2.00;1.87;;;2.80;92.10;;;;;;5075207;28;20191;-77
2021/03/17 01:23:37;;;;;;;2.53;2.10;;;2.80;91.90;;;;;;5070484;28;20218;-78
2021/03/17 01:26:03;;;;;;;2.73;2.13;;;2.80;91.70;;;;;;5072957;28;20942;-78
2021/03/17 01:28:29;;;;;;;4.10;2.43;;;2.90;91.70;;;;;;5052415;28;20188;-78
2021/03/17 01:30:56;;;;;;;2.43;2.33;;;2.90;91.30;;;;;;5071103;28;20253;-78
2021/03/17 01:33:27;;;;;;;2.10;2.00;;;2.90;91.00;;;;;;5040673;28;20187;-78
2021/03/17 01:35:53;;;;;;;3.03;2.70;;;2.90;90.70;;;;;;5046293;28;20182;-78
2021/03/17 01:38:19;;;;;;;2.63;2.50;;;2.90;90.30;;;;;;5062113;28;20270;-78
2021/03/17 01:40:46;;;;;;;1.83;1.73;;;2.90;90.10;;;;;;5063082;28;20183;-78
2021/03/17 01:43:13;;;;;;;2.67;2.50;;;3.00;89.90;;;;;;5054790;28;20985;-77
2021/03/17 01:45:40;;;;;;;2.80;2.53;;;3.00;89.60;;;;;;5057827;28;20179;-78
2021/03/17 01:48:07;;;;;;;2.67;2.47;;;3.00;89.30;;;;;;5064925;28;20203;-77
2021/03/17 01:50:38;;;;;;;2.87;2.67;;;2.90;89.30;;;;;;5065141;28;20183;-77
2021/03/17 01:53:16;;;;;;;2.57;2.37;;;2.90;89.30;;;;;;5056552;28;20195;-77
2021/03/17 01:55:43;;;;;;;2.63;2.20;;;2.90;89.10;;;;;;5048007;28;20182;-77
2021/03/17 01:58:10;;;;;;;2.63;1.90;;;3.00;89.20;;;;;;5054897;28;20187;-76
2021/03/17 02:00:37;;;;;;;1.57;1.47;;;2.90;89.00;;;;;;5059082;28;20179;-77
2021/03/17 02:03:04;;;;;;;2.00;1.90;;;2.90;88.80;;;;;;5046891;28;20282;-76
2021/03/17 02:05:34;;;;;;;2.60;1.73;;;3.00;88.80;;;;;;5065720;28;20182;-78
2021/03/17 02:08:04;;;;;;;2.07;1.97;;;3.00;88.80;;;;;;5065598;28;20182;-78
2021/03/17 02:10:30;;;;;;;2.57;2.47;;;3.00;88.80;;;;;;5060495;28;20245;-76
2021/03/17 02:13:39;;;;;;;4.27;2.20;;;3.00;88.90;;;;;;5047162;28;20183;-77
2021/03/17 02:16:30;;;;;;;2.67;2.50;;;2.90;88.90;;;;;;5086677;28;20186;-77
2021/03/17 02:19:04;;;;;;;2.33;2.13;;;2.90;88.90;;;;;;5055752;28;20197;-76
2021/03/17 02:21:52;;;;;;;3.13;2.63;;;2.90;89.10;;;;;;5062165;28;20194;-75
2021/03/17 02:24:41;;;;;;;2.30;2.20;;;3.00;89.00;;;;;;5065493;28;20205;-76
2021/03/17 02:27:26;;;;;;;2.50;2.27;;;2.90;89.00;;;;;;5009093;28;20767;-76
2021/03/17 02:30:03;;;;;;;2.10;2.00;;;2.90;89.00;;;;;;5009190;28;20181;-75
2021/03/17 02:33:13;;;;;;;2.57;2.47;;;2.90;89.00;;;;;;5008049;28;20648;-77
2021/03/17 02:35:42;;;;;;;2.57;1.93;;;2.90;89.00;;;;;;4964374;28;20190;-77
2021/03/17 02:38:12;;;;;;;2.23;2.07;;;2.90;88.80;;;;;;4963818;28;20198;-78
2021/03/17 02:40:39;;;;;;;2.10;1.90;;;2.80;88.80;;;;;;4976639;28;20201;-78
2021/03/17 02:43:38;;;;;;;1.80;1.70;;;2.80;89.00;;;;;;4963253;28;20227;-77
2021/03/17 02:46:09;;;;;;;1.80;1.80;;;2.90;89.10;;;;;;4911826;29;20760;-78
2021/03/17 02:48:46;;;;;;;1.80;1.70;;;2.90;88.80;;;;;;4903866;29;20192;-77
2021/03/17 02:51:50;;;;;;;2.20;2.10;;;2.90;88.40;;;;;;4911035;29;20192;-78
2021/03/17 02:54:19;;;;;;;2.13;2.00;;;2.90;88.50;;;;;;4836395;29;20195;-78
2021/03/17 02:56:55;;;;;;;2.47;2.33;;;2.90;88.40;;;;;;4836538;29;20227;-78
2021/03/17 02:59:23;;;;;;;2.30;2.20;;;2.90;88.00;;;;;;4835162;29;20785;-78
2021/03/17 03:01:51;;;;;;;1.83;1.73;;;2.90;88.10;;;;;;4836400;29;20214;-77
2021/03/17 03:04:18;;;;;;;1.50;1.40;;;2.80;88.00;;;;;;4845135;29;20240;-77
2021/03/17 03:06:49;;;;;;;2.27;2.10;;;2.80;88.10;;;;;;4848467;29;20202;-77
2021/03/17 03:09:21;;;;;;;1.73;1.70;;;2.80;88.40;;;;;;4850221;29;20285;-77
2021/03/17 03:11:51;;;;;;;2.10;2.00;;;2.80;87.90;;;;;;4867640;29;20197;-77
2021/03/17 03:14:18;;;;;;;2.20;2.10;;;2.80;87.80;;;;;;4870740;29;20189;-76
2021/03/17 03:16:44;;;;;;;1.93;1.90;;;2.70;88.10;;;;;;4885122;29;20741;-77
2021/03/17 03:19:29;;;;;;;2.13;1.97;;;2.70;88.00;;;;;;4879563;29;20198;-78
2021/03/17 03:21:57;;;;;;;2.53;1.80;;;2.70;87.90;;;;;;4888859;28;20719;-77
2021/03/17 03:24:23;;;;;;;2.00;1.90;;;2.70;87.90;;;;;;4976345;28;20214;-79
2021/03/17 03:26:53;;;;;;;2.90;2.70;;;2.70;87.90;;;;;;4955558;28;20621;-77
2021/03/17 03:29:19;;;;;;;3.07;2.53;;;2.70;87.90;;;;;;5062127;28;20174;-77
2021/03/17 03:31:45;;;;;;;2.27;2.17;;;2.70;87.90;;;;;;5054585;28;20203;-77
2021/03/17 03:34:11;;;;;;;1.93;1.90;;;2.70;87.80;;;;;;5060399;28;20192;-76
2021/03/17 03:36:37;;;;;;;2.93;2.73;;;2.80;87.70;;;;;;5066222;28;20911;-76
2021/03/17 03:39:03;;;;;;;2.63;2.43;;;2.70;87.70;;;;;;5056169;28;20190;-78
2021/03/17 03:41:29;;;;;;;2.17;1.97;;;2.70;87.60;;;;;;5075453;28;20182;-77
2021/03/17 03:43:55;;;;;;;3.23;2.83;;;2.70;87.60;;;;;;5038596;28;20210;-78
2021/03/17 03:46:21;;;;;;;2.13;2.03;;;2.70;87.50;;;;;;5056060;28;20179;-78
2021/03/17 03:48:46;;;;;;;2.53;2.33;;;2.70;87.60;;;;;;5066440;28;20222;-78
2021/03/17 03:51:12;;;;;;;2.17;2.07;;;2.70;87.60;;;;;;5065623;28;20187;-77
2021/03/17 03:54:07;;;;;;;2.50;2.37;;;2.70;87.50;;;;;;5061413;28;20194;-78
2021/03/17 03:56:40;;;;;;;2.97;2.77;;;2.80;87.30;;;;;;5070858;28;20237;-76
2021/03/17 03:59:09;;;;;;;2.70;2.60;;;2.80;87.10;;;;;;5055129;28;20201;-75
2021/03/17 04:01:46;;;;;;;2.23;2.13;;;2.70;87.10;;;;;;5043693;28;20743;-77
2021/03/17 04:04:18;;;;;;;2.53;2.43;;;2.70;86.90;;;;;;5065595;28;20610;-77
2021/03/17 04:06:54;;;;;;;2.43;2.33;;;2.70;86.80;;;;;;5067956;28;20238;-78
2021/03/17 04:09:42;;;;;;;1.63;1.63;;;2.70;86.70;;;;;;5060830;28;20175;-78
2021/03/17 04:12:10;;;;;;;2.20;2.10;;;2.70;86.60;;;;;;5079395;28;20558;-78
2021/03/17 04:14:36;;;;;;;2.17;2.07;;;2.70;86.40;;;;;;5066310;28;20180;-78
2021/03/17 04:17:25;;;;;;;2.80;2.70;;;2.70;86.50;;;;;;5068656;28;20195;-78
2021/03/17 04:19:57;;;;;;;2.30;2.13;;;2.70;86.40;;;;;;5065663;28;20950;-77
2021/03/17 04:22:28;;;;;;;2.90;2.30;;;2.70;86.60;;;;;;5049010;28;20175;-77
2021/03/17 04:24:55;;;;;;;1.70;1.70;;;2.70;86.50;;;;;;5068066;28;20175;-77
2021/03/17 04:27:21;;;;;;;2.80;2.60;;;2.70;86.30;;;;;;5069730;28;21665;-77
2021/03/17 04:29:51;;;;;;;2.70;2.50;;;2.70;86.30;;;;;;5043793;28;20191;-78
2021/03/17 04:32:19;;;;;;;2.07;1.93;;;2.70;86.00;;;;;;5063738;28;20183;-76
2021/03/17 04:34:47;;;;;;;2.20;2.07;;;2.70;85.80;;;;;;5036991;28;20599;-77
2021/03/17 04:37:14;;;;;;;2.00;1.90;;;2.70;85.70;;;;;;5078729;28;20189;-78
2021/03/17 04:39:40;;;;;;;3.10;2.90;;;2.70;85.90;;;;;;5066643;28;20180;-78
2021/03/17 04:42:07;;;;;;;2.90;2.63;;;2.70;85.60;;;;;;5063294;28;20218;-77
2021/03/17 04:44:33;;;;;;;2.60;2.40;;;2.70;85.20;;;;;;5058431;28;20276;-78
2021/03/17 04:47:01;;;;;;;3.33;3.07;;;2.70;84.90;;;;;;5042094;28;20205;-78
2021/03/17 04:49:29;;;;;;;2.90;2.70;;;2.80;84.70;;;;;;5052917;28;20237;-78
2021/03/17 04:51:56;;;;;;;3.10;2.80;;;2.80;84.60;;;;;;5069968;28;20199;-78
2021/03/17 04:54:22;;;;;;;2.97;2.77;;;2.80;84.30;;;;;;5064467;28;20253;-77
2021/03/17 04:56:48;;;;;;;2.87;2.67;;;2.80;84.30;;;;;;5058526;28;20187;-78
2021/03/17 04:59:20;;;;;;;2.67;2.47;;;2.80;84.40;;;;;;5069583;28;20187;-77
2021/03/17 05:01:47;;;;;;;2.83;2.67;;;2.80;84.40;;;;;;5056419;28;20274;-77
2021/03/17 05:04:13;;;;;;;3.27;2.87;;;2.80;84.20;;;;;;5065264;28;20211;-78
2021/03/17 05:06:43;;;;;;;3.00;2.90;;;2.70;83.90;;;;;;5069330;28;20179;-77
2021/03/17 05:09:10;;;;;;;3.00;2.83;;;2.70;84.10;;;;;;5062220;28;20175;-77
2021/03/17 05:11:38;;;;;;;3.07;2.87;;;2.70;84.10;;;;;;5070363;28;20175;-77
2021/03/17 05:14:06;;;;;;;3.03;2.73;;;2.70;84.00;;;;;;5059902;28;20190;-76
2021/03/17 05:16:34;;;;;;;3.17;2.63;;;2.70;84.10;;;;;;5056925;28;20239;-77
2021/03/17 05:19:01;;;;;;;3.90;3.00;;;2.70;83.90;;;;;;5064092;28;20234;-78
2021/03/17 05:21:28;;;;;;;10.30;2.90;;;2.70;84.00;;;;;;5061318;28;20285;-77
2021/03/17 05:23:56;;;;;;;2.67;2.57;;;2.70;84.00;;;;;;5049324;28;20206;-77
2021/03/17 05:26:24;;;;;;;2.53;2.43;;;2.70;84.10;;;;;;5066156;28;20215;-77
2021/03/17 05:28:51;;;;;;;3.40;3.20;;;2.70;84.00;;;;;;5061970;28;20226;-77
2021/03/17 05:31:19;;;;;;;3.33;3.07;;;2.70;83.70;;;;;;5044568;28;20192;-78
2021/03/17 05:33:45;;;;;;;3.50;3.20;;;2.70;83.90;;;;;;5067449;28;20688;-77
2021/03/17 05:36:11;;;;;;;2.93;2.73;;;2.70;84.00;;;;;;5043798;28;20214;-78
2021/03/17 05:38:37;;;;;;;2.90;2.67;;;2.70;83.90;;;;;;5045764;28;20195;-77
2021/03/17 05:41:03;;;;;;;2.33;2.13;;;2.70;84.10;;;;;;5055615;28;20179;-77
2021/03/17 05:43:30;;;;;;;4.83;2.87;;;2.70;84.00;;;;;;5054845;28;20573;-77
2021/03/17 05:45:59;;;;;;;2.70;2.50;;;2.80;83.70;;;;;;5061894;28;20203;-77
2021/03/17 05:48:28;;;;;;;4.07;3.63;;;2.70;83.10;;;;;;5076942;28;20257;-78
2021/03/17 05:50:55;;;;;;;2.87;2.73;;;2.80;83.30;;;;;;5069315;28;20190;-82
2021/03/17 05:53:21;;;;;;;2.67;2.47;;;2.80;83.20;;;;;;5035334;28;20203;-79
2021/03/17 05:55:47;;;;;;;2.77;2.23;;;2.80;83.30;;;;;;5042931;28;20539;-79
2021/03/17 05:58:13;;;;;;;2.77;2.57;;;2.80;83.10;;;;;;5061114;28;20265;-79
2021/03/17 06:00:39;;;;;;;4.30;2.60;;;2.80;83.10;;;;;;5066131;28;20187;-80
2021/03/17 06:03:06;;;;;;;2.93;2.57;;;2.80;83.10;;;;;;5048681;28;20210;-79
2021/03/17 06:05:32;;;;;;;2.77;2.57;;;2.80;82.90;;;;;;5068477;28;20235;-81
2021/03/17 06:08:12;;;;;;;4.93;3.40;;;2.90;83.00;;;;;;5065114;28;20656;-80
2021/03/17 06:10:38;;;;;;;3.43;3.13;;;2.90;82.90;;;;;;5056433;28;20565;-79
2021/03/17 06:13:34;;;;;;;3.00;2.77;;;2.80;82.90;;;;;;5070167;28;20611;-79
2021/03/17 06:16:03;;;;;;;2.53;2.33;;;2.90;83.10;;;;;;4971351;28;20185;-79
2021/03/17 06:18:52;;;;;;;3.23;3.03;;;2.90;82.70;;;;;;4980730;28;20193;-77
2021/03/17 06:21:20;;;;;;;2.83;2.60;;;2.90;82.70;;;;;;4991241;28;20248;-77
2021/03/17 06:23:52;;;;;;;3.23;2.93;;;3.00;82.80;;;;;;4967524;28;20759;-77
2021/03/17 06:26:18;;;;;;;2.67;2.53;;;2.90;82.60;;;;;;4980796;28;20193;-76
2021/03/17 06:28:45;;;;;;;2.50;2.30;;;2.90;82.70;;;;;;4974297;28;20185;-78
2021/03/17 06:31:12;;;;;;;3.67;2.63;;;2.90;83.10;;;;;;4966292;28;20182;-78
2021/03/17 06:33:44;;;;;;;2.57;2.43;;;3.00;83.00;;;;;;4964840;28;21064;-78
2021/03/17 06:36:11;;;;;;;2.40;2.20;;;3.00;82.70;;;;;;4977806;28;20197;-78
2021/03/17 06:38:37;;;;;;;3.47;2.87;;;3.00;82.40;;;;;;4964449;28;20634;-78
2021/03/17 06:41:03;;;;;;;3.30;3.00;;;3.00;82.60;;;;;;4966213;28;20238;-78
2021/03/17 06:43:37;;;;;;;3.00;2.77;;;3.00;82.80;;;;;;4974599;28;20259;-78
2021/03/17 06:46:05;;;;;;;2.73;2.53;;;3.10;82.10;;;;;;4956386;28;20201;-81
2021/03/17 06:48:32;;;;;;;2.57;2.47;;;3.10;82.00;;;;;;4973047;28;20204;-76
2021/03/17 06:51:00;;;;;;;2.53;2.43;;;3.10;82.00;;;;;;4956984;28;20186;-81
2021/03/17 06:53:35;;;;;;;4.60;3.20;;;3.20;82.10;;;;;;5032493;28;20225;-80
2021/03/17 06:56:17;;;;;;;2.73;2.53;;;3.10;81.80;;;;;;5038793;28;20187;-80
2021/03/17 06:58:45;;;;;;;3.07;2.87;;;3.10;81.90;;;;;;5038810;28;20297;-80
2021/03/17 07:01:30;;;;;;;2.30;2.20;;;3.20;82.00;;;;;;5036588;28;20731;-78
2021/03/17 07:04:01;;;;;;;5.20;2.57;;;3.30;81.40;;;;;;5056668;28;20206;-80
2021/03/17 07:06:27;;;;;;;2.93;2.77;;;3.30;81.30;;;;;;5066982;28;20603;-81
2021/03/17 07:08:54;;;;;;;2.50;2.40;;;3.30;81.40;;;;;;5062057;28;20742;-81
2021/03/17 07:11:29;;;;;;;3.77;2.50;;;3.30;81.50;;;;;;5061587;28;20197;-80
2021/03/17 07:13:56;;;;;;;2.50;2.30;;;3.30;81.40;;;;;;5042266;28;20222;-81
2021/03/17 07:16:32;;;;;;;3.30;2.57;;;3.30;81.60;;;;;;5036460;28;20215;-81
2021/03/17 07:18:58;;;;;;;2.50;2.13;;;3.30;81.70;;;;;;5042546;28;20566;-81
2021/03/17 07:22:01;;;;;;;2.93;2.37;;;3.30;81.80;;;;;;5046967;28;20190;-82
2021/03/17 07:24:27;;;;;;;1.60;1.60;;;3.30;81.60;;;;;;5038960;28;20297;-83
2021/03/17 07:26:53;;;;;;;2.93;2.57;;;3.30;81.20;;;;;;5038823;28;20267;-81
2021/03/17 07:29:19;;;;;;;2.00;1.90;;;3.30;81.40;;;;;;5056211;28;20186;-82
2021/03/17 07:31:50;;;;;;;2.00;1.90;;;3.30;81.00;;;;;;5038250;28;20268;-81
2021/03/17 07:34:22;;;;;;;2.30;2.20;;;3.20;81.30;;;;;;5045149;28;20194;-81
2021/03/17 07:36:57;;;;;;;1.97;1.87;;;3.20;81.20;;;;;;5067377;28;20179;-80
2021/03/17 07:39:41;;;;;;;3.40;2.33;;;3.20;81.00;;;;;;5060958;28;20181;-80
2021/03/17 07:42:12;;;;;;;2.17;2.03;;;3.20;81.00;;;;;;5038730;28;20218;-82
2021/03/17 07:44:40;;;;;;;2.33;2.17;;;3.10;81.50;;;;;;5059993;28;20706;-79
2021/03/17 07:47:09;;;;;;;3.20;2.90;;;3.10;81.80;;;;;;5046184;28;20273;-81
2021/03/17 07:49:38;;;;;;;2.70;2.50;;;3.10;81.90;;;;;;5067014;28;20187;-78
2021/03/17 07:52:20;;;;;;;2.30;2.20;;;3.20;82.10;;;;;;5057324;28;20938;-80
2021/03/17 07:54:50;;;;;;;2.10;2.00;;;3.20;81.60;;;;;;5078134;28;20205;-80
2021/03/17 07:57:16;;;;;;;2.20;2.00;;;3.20;81.80;;;;;;5046451;28;20721;-78
2021/03/17 07:59:42;;;;;;;1.80;1.50;;;3.30;81.80;;;;;;5063866;28;20191;-79
2021/03/17 08:02:13;;;;;;;2.10;2.07;;;3.20;81.80;;;;;;5036526;28;20584;-80
2021/03/17 08:04:39;;;;;;;3.90;2.33;;;3.20;82.00;;;;;;5057133;28;20213;-79
2021/03/17 08:07:05;;;;;;;1.70;1.60;;;3.20;82.10;;;;;;5071504;28;20221;-79
2021/03/17 08:09:33;;;;;;;2.80;2.63;;;3.20;82.60;;;;;;5041439;28;20188;-79
2021/03/17 08:12:02;;;;;;;3.13;2.60;;;3.20;82.70;;;;;;5049960;28;20186;-81
2021/03/17 08:14:30;;;;;;;4.10;2.83;;;3.30;82.80;;;;;;5047631;28;20752;-81
2021/03/17 08:16:56;;;;;;;2.20;2.10;;;3.50;82.70;;;;;;5047172;28;20191;-80
2021/03/17 08:19:27;;;;;;;2.17;2.07;;;3.50;82.30;;;;;;5060466;28;20194;-79
2021/03/17 08:22:02;;;;;;;1.90;1.73;;;3.50;82.20;;;;;;5063011;28;20257;-79
2021/03/17 08:24:35;;;;;;;4.73;2.43;;;3.50;82.20;;;;;;5066069;28;20210;-79
2021/03/17 08:27:20;;;;;;;1.83;1.83;;;3.50;82.10;;;;;;5038977;28;20179;-80
2021/03/17 08:29:49;;;;;;;2.70;2.50;;;3.40;82.00;;;;;;5035605;28;20676;-81
2021/03/17 08:32:17;;;;;;;2.07;1.97;;;3.50;82.30;;;;;;5046211;28;20670;-81
2021/03/17 08:34:53;;;;;;;1.90;1.80;;;3.50;81.80;;;;;;5042222;28;20245;-79
2021/03/17 08:37:19;;;;;;;2.73;1.47;;;3.40;81.80;;;;;;5059500;28;20687;-79
2021/03/17 08:39:47;;;;;;;1.27;1.20;;;3.50;82.20;;;;;;5045838;28;20690;-79
2021/03/17 08:42:30;;;;;;;1.90;1.80;;;3.50;81.70;;;;;;5054799;28;20256;-86
2021/03/17 08:45:08;;;;;;;1.87;1.77;;;3.50;81.40;;;;;;5074816;28;20189;-79
2021/03/17 08:47:46;;;;;;;3.33;2.10;;;3.40;81.70;;;;;;5042556;28;20190;-83
2021/03/17 08:50:15;;;;;;;1.60;1.50;;;3.50;82.00;;;;;;5060322;28;20325;-92
2021/03/17 08:52:43;;;;;;;1.90;1.80;;;3.60;82.00;;;;;;5054647;28;20223;-77
2021/03/17 08:55:26;;;;;;;2.27;2.03;;;3.60;81.70;;;;;;5055131;28;20329;-76
2021/03/17 08:57:59;;;;;;;2.80;2.00;;;3.60;81.90;;;;;;5056022;28;20210;-77
2021/03/17 09:00:44;;;;;;;1.97;1.87;;;3.50;82.00;;;;;;5056622;28;20182;-77
2021/03/17 09:03:30;;;;;;;2.00;1.87;;;3.50;82.20;;;;;;5070993;28;20264;-76
2021/03/17 09:06:25;;;;;;;1.63;1.63;;;3.50;82.00;;;;;;5061629;28;20183;-77
2021/03/17 09:08:58;;;;;;;1.47;1.47;;;3.60;82.20;;;;;;5058507;28;20199;-76
2021/03/17 09:11:29;;;;;;;4.53;2.40;;;3.50;81.90;;;;;;5071269;28;20187;-76
2021/03/17 09:14:01;;;;;;;1.90;1.80;;;3.50;82.10;;;;;;5050338;28;20194;-76
2021/03/17 09:16:28;;;;;;;1.33;1.33;;;3.50;82.30;;;;;;5063745;28;20278;-76
2021/03/17 09:19:08;;;;;;;2.47;2.27;;;3.40;82.50;;;;;;5063303;28;20187;-77
2021/03/17 09:21:36;;;;;;;2.43;1.93;;;3.40;83.20;;;;;;5049101;28;20321;-76
2021/03/17 09:24:03;;;;;;;4.87;2.57;;;3.40;82.90;;;;;;5049592;28;20698;-75
2021/03/17 09:26:29;;;;;;;1.53;1.53;;;3.40;82.80;;;;;;5063854;28;20202;-77
2021/03/17 09:28:56;;;;;;;5.33;1.97;;;3.40;83.00;;;;;;5043603;28;20183;-77
2021/03/17 09:31:22;;;;;;;2.07;1.93;;;3.40;83.40;;;;;;5038878;28;20694;-76
2021/03/17 09:33:49;;;;;;;2.13;2.03;;;3.30;83.90;;;;;;5060888;28;20195;-77
2021/03/17 09:36:23;;;;;;;2.33;2.23;;;3.20;84.10;;;;;;5056447;28;20191;-76
2021/03/17 09:38:54;;;;;;;2.47;1.93;;;3.30;84.20;;;;;;5048436;28;20306;-77
2021/03/17 09:41:27;;;;;;;2.87;2.67;;;3.20;84.40;;;;;;5047588;28;20191;-77
2021/03/17 09:44:13;;;;;;;3.13;2.80;;;3.10;84.70;;;;;;5063674;28;20203;-77
2021/03/17 09:46:43;;;;;;;5.27;2.63;;;3.10;85.30;;;;;;5042000;28;20218;-76
2021/03/17 09:49:17;;;;;;;2.83;2.50;;;3.10;85.70;;;;;;5064143;28;20572;-77
2021/03/17 09:51:55;;;;;;;3.17;2.93;;;3.20;85.70;;;;;;5064919;28;20831;-79
2021/03/17 09:54:27;;;;;;;2.50;2.30;;;3.20;85.60;;;;;;5059383;28;20194;-79
2021/03/17 09:56:57;;;;;;;2.73;2.53;;;3.30;85.80;;;;;;5044572;28;20179;-78
2021/03/17 09:59:29;;;;;;;2.10;2.00;;;3.40;85.40;;;;;;5067254;28;20221;-79
2021/03/17 10:02:25;;;;;;;2.03;1.93;;;3.40;85.20;;;;;;5060851;28;20207;-79
2021/03/17 10:05:00;;;;;;;2.37;2.17;;;3.40;84.60;;;;;;5057801;28;20206;-79
2021/03/17 10:07:29;;;;;;;2.30;2.20;;;3.30;85.30;;;;;;5073085;28;20195;-78
2021/03/17 10:09:56;;;;;;;2.63;2.40;;;3.30;85.40;;;;;;5069004;28;20179;-78
2021/03/17 10:12:23;;;;;;;3.33;2.50;;;3.40;85.60;;;;;;5049121;28;20180;-78
2021/03/17 10:14:52;;;;;;;2.53;2.37;;;3.30;85.40;;;;;;5058674;28;20206;-78
2021/03/17 10:17:21;;;;;;;4.37;3.43;;;3.30;85.80;;;;;;5043601;28;20280;-78
2021/03/17 10:19:53;;;;;;;4.67;2.70;;;3.40;86.40;;;;;;5068865;28;20186;-77
2021/03/17 10:22:20;;;;;;;2.70;2.47;;;3.40;86.60;;;;;;5065260;28;20250;-78
2021/03/17 10:24:48;;;;;;;2.60;2.47;;;3.40;86.80;;;;;;5048858;28;20222;-78
2021/03/17 10:27:16;;;;;;;2.17;1.97;;;3.40;86.30;;;;;;5064060;28;20614;-77
2021/03/17 10:29:44;;;;;;;2.37;2.07;;;3.40;86.60;;;;;;5074704;28;20226;-77
2021/03/17 10:32:14;;;;;;;2.73;2.53;;;3.40;86.70;;;;;;5067420;28;20182;-78
2021/03/17 10:34:40;;;;;;;2.30;2.13;;;3.30;86.70;;;;;;5068189;28;20175;-77
2021/03/17 10:37:13;;;;;;;4.43;1.90;;;3.10;86.90;;;;;;5039784;28;20209;-77
2021/03/17 10:39:40;;;;;;;1.60;1.50;;;3.10;86.90;;;;;;5050695;28;20975;-76
2021/03/17 10:42:24;;;;;;;1.80;1.77;;;3.10;86.90;;;;;;5069268;28;20639;-78
2021/03/17 10:45:21;;;;;;;1.77;1.67;;;3.10;86.90;;;;;;5044624;28;20268;-77
2021/03/17 10:47:47;;;;;;;1.97;1.87;;;3.00;87.10;;;;;;4982889;28;20730;-78
2021/03/17 10:50:37;;;;;;;2.43;2.33;;;3.00;87.70;;;;;;5002980;28;20185;-79
2021/03/17 10:53:17;;;;;;;2.17;2.07;;;3.10;88.10;;;;;;4956949;28;20206;-79
2021/03/17 10:55:44;;;;;;;1.97;1.80;;;3.10;87.70;;;;;;4980925;28;20197;-79
2021/03/17 10:58:13;;;;;;;2.63;2.03;;;3.20;87.80;;;;;;4962231;28;20694;-79
2021/03/17 11:00:40;;;;;;;2.13;1.93;;;3.20;86.90;;;;;;4976049;28;20256;-79
2021/03/17 11:03:25;;;;;;;2.20;2.00;;;3.30;86.70;;;;;;4955896;28;20300;-78
2021/03/17 11:05:53;;;;;;;2.77;2.47;;;3.30;86.20;;;;;;4960317;28;20194;-79
2021/03/17 11:08:19;;;;;;;2.83;2.63;;;3.30;86.30;;;;;;4966271;28;20228;-79
2021/03/17 11:11:12;;;;;;;2.20;2.07;;;3.30;85.30;;;;;;4971494;28;20696;-79
2021/03/17 11:13:44;;;;;;;3.10;2.87;;;3.30;85.10;;;;;;4966165;28;20971;-80
2021/03/17 11:16:20;;;;;;;2.30;2.10;;;3.30;85.20;;;;;;4973573;28;20189;-81
2021/03/17 11:18:53;;;;;;;2.43;2.33;;;3.30;85.00;;;;;;4962546;28;20205;-80
2021/03/17 11:21:33;;;;;;;2.40;2.20;;;3.30;84.60;;;;;;4952681;28;20599;-79
2021/03/17 11:24:07;;;;;;;3.23;3.00;;;3.30;85.00;;;;;;4967398;28;20291;-82
2021/03/17 11:26:40;;;;;;;3.77;3.47;;;3.30;85.30;;;;;;5023499;28;20291;-81
2021/03/17 11:29:17;;;;;;;2.90;2.40;;;3.40;85.60;;;;;;5012483;28;20215;-79
2021/03/17 11:31:47;;;;;;;3.17;2.87;;;3.30;85.80;;;;;;5048397;28;20179;-80
2021/03/17 11:34:14;;;;;;;3.70;3.33;;;3.40;86.00;;;;;;5046152;28;20225;-79
2021/03/17 11:36:41;;;;;;;4.37;2.70;;;3.40;85.10;;;;;;5046624;28;20190;-79
2021/03/17 11:39:17;;;;;;;2.70;2.50;;;3.40;84.90;;;;;;5060693;28;20543;-81
2021/03/17 11:41:45;;;;;;;2.57;2.37;;;3.40;85.30;;;;;;5067104;28;20225;-78
2021/03/17 11:44:20;;;;;;;2.97;2.63;;;3.40;85.70;;;;;;5047821;28;20296;-77
2021/03/17 11:46:46;;;;;;;3.37;3.17;;;3.40;85.60;;;;;;5054387;28;20190;-75
2021/03/17 11:49:15;;;;;;;2.73;2.53;;;3.50;86.20;;;;;;5043093;28;20210;-76
2021/03/17 11:51:41;;;;;;;3.00;2.90;;;3.50;85.50;;;;;;5069781;28;20183;-76
2021/03/17 11:54:07;;;;;;;2.97;2.77;;;3.60;85.50;;;;;;5066328;28;20207;-77
2021/03/17 11:56:33;;;;;;;2.57;2.37;;;3.70;85.60;;;;;;5033986;28;20193;-75
2021/03/17 11:58:59;;;;;;;2.60;2.40;;;3.70;85.70;;;;;;5048107;28;20187;-90
2021/03/17 12:01:24;;;;;;;2.67;2.43;;;3.70;86.30;;;;;;5064374;28;20178;-83
2021/03/17 12:03:50;;;;;;;2.70;2.50;;;3.70;86.40;;;;;;5068654;28;20205;-82
2021/03/17 12:06:16;;;;;;;3.27;3.03;;;3.80;86.60;;;;;;5043719;28;20187;-78
2021/03/17 12:08:42;;;;;;;4.07;2.37;;;3.80;86.70;;;;;;5067273;28;20183;-77
2021/03/17 12:13:52;;;;;;;2.30;2.20;;;3.80;86.40;;;;;;5062989;28;20197;-78
2021/03/17 12:16:18;;;;;;;3.77;2.23;;;3.60;86.70;;;;;;5061416;28;20581;-77
2021/03/17 12:18:44;;;;;;;4.37;2.73;;;3.60;87.30;;;;;;5064525;28;20191;-78
2021/03/17 12:21:14;;;;;;;2.37;2.27;;;3.60;87.60;;;;;;5044701;28;20195;-78
2021/03/17 12:23:40;;;;;;;2.77;2.57;;;3.50;87.40;;;;;;5046339;28;20646;-77
2021/03/17 12:26:06;;;;;;;2.70;2.50;;;3.50;87.50;;;;;;5050698;28;20183;-76
2021/03/17 12:28:32;;;;;;;3.43;2.00;;;3.40;87.70;;;;;;5042677;28;20688;-77
2021/03/17 12:31:02;;;;;;;2.10;2.00;;;3.50;88.10;;;;;;5049644;28;20186;-76
2021/03/17 12:33:28;;;;;;;2.53;2.33;;;3.50;88.70;;;;;;5069659;28;20542;-76
2021/03/17 12:35:54;;;;;;;2.80;2.37;;;3.50;88.40;;;;;;5070577;28;20186;-77
2021/03/17 12:38:19;;;;;;;4.83;2.13;;;3.50;87.70;;;;;;5053025;28;20654;-78
2021/03/17 12:40:45;;;;;;;2.63;2.50;;;3.40;87.60;;;;;;5052481;28;20246;-80
2021/03/17 12:43:11;;;;;;;3.10;2.87;;;3.40;87.60;;;;;;5070005;28;20209;-83
2021/03/17 12:45:37;;;;;;;2.50;2.30;;;3.40;88.00;;;;;;5043979;28;20656;-80
2021/03/17 12:48:03;;;;;;;2.30;2.20;;;3.40;88.40;;;;;;5071465;28;20190;-77
2021/03/17 12:50:28;;;;;;;2.80;2.60;;;3.40;88.90;;;;;;5062326;28;20179;-77
2021/03/17 12:52:54;;;;;;;2.40;2.27;;;3.30;89.00;;;;;;5066349;28;20195;-76
2021/03/17 12:55:20;;;;;;;2.17;2.07;;;3.30;89.30;;;;;;5053126;28;20915;-81
2021/03/17 12:57:46;;;;;;;3.47;3.13;;;3.30;88.90;;;;;;5072203;28;20174;-77
2021/03/17 13:00:23;;;;;;;3.03;2.23;;;3.30;89.70;;;;;;5067306;28;20187;-83
2021/03/17 13:02:49;;;;;;;3.33;3.13;;;3.30;89.90;;;;;;5076777;28;20293;-78
2021/03/17 13:05:15;;;;;;;2.67;2.47;;;3.30;90.00;;;;;;5067482;28;20795;-79
2021/03/17 13:08:10;;;;;;;2.93;1.80;;;3.30;90.50;;;;;;5067647;28;20210;-78
2021/03/17 13:10:51;;;;;;;1.87;1.87;;;3.20;89.90;;;;;;5049192;28;20279;-78
2021/03/17 13:13:16;;;;;;;1.60;1.50;;;3.10;90.70;;;;;;5072760;28;20183;-78
2021/03/17 13:15:43;;;;;;;2.77;2.27;;;3.10;90.80;;;;;;5045424;28;20190;-78
2021/03/17 13:18:11;;;;;;;1.60;1.50;;;3.00;91.20;;;;;;5052177;28;20183;-79